sensor_id;sensor_type;location;lat;lon;timestamp;temperature;humidity
24904;DHT22;12960;50.322;11.124;2022-08-26T00:00:21;20.10;99.90
24904;DHT22;12960;50.322;11.124;2022-08-26T00:01:22;20.30;99.90
24904;DHT22;12960;50.322;11.124;2022-08-26T00:02:23;20.40;99.90
24904;DHT22;12960;50.322;11.124;2022-08-26T00:03:27;20.50;85.70
24904;DHT22;12960;50.322;11.124;2022-08-26T00:04:31;20.50;76.70
24904;DHT22;12960;50.322;11.124;2022-08-26T00:05:35;20.40;54.90
24904;DHT22;12960;50.322;11.124;2022-08-26T00:06:36;20.30;42.00
24904;DHT22;12960;50.322;11.124;2022-08-26T00:07:37;20.20;56.40
24904;DHT22;12960;50.322;11.124;2022-08-26T00:08:38;20.20;43.70
24904;DHT22;12960;50.322;11.124;2022-08-26T00:09:39;20.00;88.80
24904;DHT22;12960;50.322;11.124;2022-08-26T00:10:43;20.00;99.90
24904;DHT22;12960;50.322;11.124;2022-08-26T00:11:48;19.90;99.90
24904;DHT22;12960;50.322;11.124;2022-08-26T00:12:49;19.80;99.90
24904;DHT22;12960;50.322;11.124;2022-08-26T00:13:51;19.80;99.90
24904;DHT22;12960;50.322;11.124;2022-08-26T00:14:52;19.70;99.90
24904;DHT22;12960;50.322;11.124;2022-08-26T00:15:56;19.70;99.90
24904;DHT22;12960;50.322;11.124;2022-08-26T00:17:00;19.70;99.90
24904;DHT22;12960;50.322;11.124;2022-08-26T00:18:01;19.70;99.90
24904;DHT22;12960;50.322;11.124;2022-08-26T00:19:02;19.60;99.90
24904;DHT22;12960;50.322;11.124;2022-08-26T00:20:05;19.50;99.90
24904;DHT22;12960;50.322;11.124;2022-08-26T00:21:07;19.60;99.90
24904;DHT22;12960;50.322;11.124;2022-08-26T00:22:09;19.50;99.90
24904;DHT22;12960;50.322;11.124;2022-08-26T00:23:10;19.50;99.90
24904;DHT22;12960;50.322;11.124;2022-08-26T00:24:12;19.50;99.90
24904;DHT22;12960;50.322;11.124;2022-08-26T00:25:14;19.50;99.90
24904;DHT22;12960;50.322;11.124;2022-08-26T00:26:15;19.50;99.90
24904;DHT22;12960;50.322;11.124;2022-08-26T00:27:16;19.50;99.90
24904;DHT22;12960;50.322;11.124;2022-08-26T00:28:17;19.40;99.90
24904;DHT22;12960;50.322;11.124;2022-08-26T00:29:21;19.40;99.90
24904;DHT22;12960;50.322;11.124;2022-08-26T00:30:25;19.50;99.90
24904;DHT22;12960;50.322;11.124;2022-08-26T00:31:26;19.50;99.90
24904;DHT22;12960;50.322;11.124;2022-08-26T00:32:27;19.40;99.90
24904;DHT22;12960;50.322;11.124;2022-08-26T00:33:29;19.40;99.90
24904;DHT22;12960;50.322;11.124;2022-08-26T00:34:30;19.40;99.90
24904;DHT22;12960;50.322;11.124;2022-08-26T00:35:31;19.40;99.90
24904;DHT22;12960;50.322;11.124;2022-08-26T00:36:32;19.40;99.90
24904;DHT22;12960;50.322;11.124;2022-08-26T00:37:33;19.40;99.90
24904;DHT22;12960;50.322;11.124;2022-08-26T00:38:38;19.40;99.90
24904;DHT22;12960;50.322;11.124;2022-08-26T00:39:41;19.30;99.90
24904;DHT22;12960;50.322;11.124;2022-08-26T00:40:45;19.30;99.90
24904;DHT22;12960;50.322;11.124;2022-08-26T00:41:47;19.30;99.90
24904;DHT22;12960;50.322;11.124;2022-08-26T00:42:48;19.30;99.90
24904;DHT22;12960;50.322;11.124;2022-08-26T00:43:50;19.30;99.90
24904;DHT22;12960;50.322;11.124;2022-08-26T00:44:51;19.30;99.90
24904;DHT22;12960;50.322;11.124;2022-08-26T00:46:00;19.30;99.90
24904;DHT22;12960;50.322;11.124;2022-08-26T00:47:07;19.20;99.90
24904;DHT22;12960;50.322;11.124;2022-08-26T00:48:10;19.20;99.90
24904;DHT22;12960;50.322;11.124;2022-08-26T00:49:16;19.10;99.90
24904;DHT22;12960;50.322;11.124;2022-08-26T00:50:22;19.10;99.90
24904;DHT22;12960;50.322;11.124;2022-08-26T00:51:27;19.10;99.90
24904;DHT22;12960;50.322;11.124;2022-08-26T00:52:29;19.10;99.90
24904;DHT22;12960;50.322;11.124;2022-08-26T00:53:43;19.10;99.90
24904;DHT22;12960;50.322;11.124;2022-08-26T00:54:53;19.00;99.90
24904;DHT22;12960;50.322;11.124;2022-08-26T00:56:05;19.00;99.90
24904;DHT22;12960;50.322;11.124;2022-08-26T00:57:12;19.00;99.90
24904;DHT22;12960;50.322;11.124;2022-08-26T00:58:14;18.90;99.90
24904;DHT22;12960;50.322;11.124;2022-08-26T00:59:16;18.90;99.90
24904;DHT22;12960;50.322;11.124;2022-08-26T01:00:21;18.90;99.90
24904;DHT22;12960;50.322;11.124;2022-08-26T01:01:23;18.90;99.90
24904;DHT22;12960;50.322;11.124;2022-08-26T01:02:27;18.90;99.90
24904;DHT22;12960;50.322;11.124;2022-08-26T01:03:30;18.80;99.90
24904;DHT22;12960;50.322;11.124;2022-08-26T01:04:37;18.80;99.90
24904;DHT22;12960;50.322;11.124;2022-08-26T01:05:40;18.80;99.90
24904;DHT22;12960;50.322;11.124;2022-08-26T01:06:41;18.80;99.90
24904;DHT22;12960;50.322;11.124;2022-08-26T01:07:43;18.80;99.90
24904;DHT22;12960;50.322;11.124;2022-08-26T01:08:44;18.80;99.90
24904;DHT22;12960;50.322;11.124;2022-08-26T01:09:45;18.70;99.90
24904;DHT22;12960;50.322;11.124;2022-08-26T01:10:46;18.70;99.90
24904;DHT22;12960;50.322;11.124;2022-08-26T01:11:50;18.70;99.90
24904;DHT22;12960;50.322;11.124;2022-08-26T01:13:12;18.70;99.90
24904;DHT22;12960;50.322;11.124;2022-08-26T01:14:18;18.80;99.90
24904;DHT22;12960;50.322;11.124;2022-08-26T01:15:28;18.70;99.90
24904;DHT22;12960;50.322;11.124;2022-08-26T01:16:34;18.70;99.90
24904;DHT22;12960;50.322;11.124;2022-08-26T01:17:37;18.70;99.90
24904;DHT22;12960;50.322;11.124;2022-08-26T01:18:40;18.70;99.90
24904;DHT22;12960;50.322;11.124;2022-08-26T01:19:49;18.70;99.90
24904;DHT22;12960;50.322;11.124;2022-08-26T01:22:09;18.70;99.90
24904;DHT22;12960;50.322;11.124;2022-08-26T01:23:11;18.70;99.90
24904;DHT22;12960;50.322;11.124;2022-08-26T01:24:12;18.70;99.90
24904;DHT22;12960;50.322;11.124;2022-08-26T01:25:13;18.70;99.90
24904;DHT22;12960;50.322;11.124;2022-08-26T01:26:19;18.70;99.90
24904;DHT22;12960;50.322;11.124;2022-08-26T01:27:20;18.70;99.90
24904;DHT22;12960;50.322;11.124;2022-08-26T01:28:26;18.70;99.90
24904;DHT22;12960;50.322;11.124;2022-08-26T01:29:28;18.70;99.90
24904;DHT22;12960;50.322;11.124;2022-08-26T01:30:32;18.70;99.90
24904;DHT22;12960;50.322;11.124;2022-08-26T01:31:39;18.70;99.90
24904;DHT22;12960;50.322;11.124;2022-08-26T01:32:42;18.70;99.90
24904;DHT22;12960;50.322;11.124;2022-08-26T01:33:54;18.70;99.90
24904;DHT22;12960;50.322;11.124;2022-08-26T01:34:56;18.70;99.90
24904;DHT22;12960;50.322;11.124;2022-08-26T01:35:57;18.70;99.90
24904;DHT22;12960;50.322;11.124;2022-08-26T01:37:05;18.70;99.90
24904;DHT22;12960;50.322;11.124;2022-08-26T01:38:07;18.70;99.90
24904;DHT22;12960;50.322;11.124;2022-08-26T01:39:12;18.80;99.90
24904;DHT22;12960;50.322;11.124;2022-08-26T01:40:18;18.70;99.90
24904;DHT22;12960;50.322;11.124;2022-08-26T01:41:23;18.70;99.90
24904;DHT22;12960;50.322;11.124;2022-08-26T01:42:26;18.70;99.90
24904;DHT22;12960;50.322;11.124;2022-08-26T01:43:31;18.70;99.90
24904;DHT22;12960;50.322;11.124;2022-08-26T01:44:43;18.70;99.90
24904;DHT22;12960;50.322;11.124;2022-08-26T01:45:45;18.70;99.90
24904;DHT22;12960;50.322;11.124;2022-08-26T01:46:49;18.70;99.90
24904;DHT22;12960;50.322;11.124;2022-08-26T01:47:52;18.60;99.90
24904;DHT22;12960;50.322;11.124;2022-08-26T01:48:56;18.60;99.90
24904;DHT22;12960;50.322;11.124;2022-08-26T01:50:01;18.60;99.90
24904;DHT22;12960;50.322;11.124;2022-08-26T01:51:04;18.60;99.90
24904;DHT22;12960;50.322;11.124;2022-08-26T01:52:07;18.60;99.90
24904;DHT22;12960;50.322;11.124;2022-08-26T01:53:12;18.60;99.90
24904;DHT22;12960;50.322;11.124;2022-08-26T01:54:14;18.60;99.90
24904;DHT22;12960;50.322;11.124;2022-08-26T01:55:18;18.60;99.90
24904;DHT22;12960;50.322;11.124;2022-08-26T01:56:23;18.60;99.90
24904;DHT22;12960;50.322;11.124;2022-08-26T01:57:25;18.60;99.90
24904;DHT22;12960;50.322;11.124;2022-08-26T01:59:34;18.60;99.90
24904;DHT22;12960;50.322;11.124;2022-08-26T02:00:35;18.60;99.90
24904;DHT22;12960;50.322;11.124;2022-08-26T02:01:39;18.50;99.90
24904;DHT22;12960;50.322;11.124;2022-08-26T02:02:42;18.50;99.90
24904;DHT22;12960;50.322;11.124;2022-08-26T02:04:13;18.50;99.90
24904;DHT22;12960;50.322;11.124;2022-08-26T02:05:19;18.40;99.90
24904;DHT22;12960;50.322;11.124;2022-08-26T02:06:21;18.50;99.90
24904;DHT22;12960;50.322;11.124;2022-08-26T02:07:27;18.50;99.90
24904;DHT22;12960;50.322;11.124;2022-08-26T02:08:38;18.50;99.90
24904;DHT22;12960;50.322;11.124;2022-08-26T02:09:40;18.50;99.90
24904;DHT22;12960;50.322;11.124;2022-08-26T02:10:42;18.50;99.90
24904;DHT22;12960;50.322;11.124;2022-08-26T02:11:44;18.50;99.90
24904;DHT22;12960;50.322;11.124;2022-08-26T02:12:45;18.50;99.90
24904;DHT22;12960;50.322;11.124;2022-08-26T02:13:52;18.40;99.90
24904;DHT22;12960;50.322;11.124;2022-08-26T02:14:58;18.40;99.90
24904;DHT22;12960;50.322;11.124;2022-08-26T02:16:01;18.40;99.90
24904;DHT22;12960;50.322;11.124;2022-08-26T02:17:03;18.40;99.90
24904;DHT22;12960;50.322;11.124;2022-08-26T02:18:07;18.30;99.90
24904;DHT22;12960;50.322;11.124;2022-08-26T02:19:32;18.30;99.90
24904;DHT22;12960;50.322;11.124;2022-08-26T02:20:34;18.20;99.90
24904;DHT22;12960;50.322;11.124;2022-08-26T02:21:35;18.20;99.90
24904;DHT22;12960;50.322;11.124;2022-08-26T02:22:37;18.10;99.90
24904;DHT22;12960;50.322;11.124;2022-08-26T02:23:39;18.10;99.90
24904;DHT22;12960;50.322;11.124;2022-08-26T02:26:19;18.10;99.90
24904;DHT22;12960;50.322;11.124;2022-08-26T02:27:32;18.10;99.90
24904;DHT22;12960;50.322;11.124;2022-08-26T02:28:43;18.00;99.90
24904;DHT22;12960;50.322;11.124;2022-08-26T02:29:50;18.00;99.90
24904;DHT22;12960;50.322;11.124;2022-08-26T02:30:56;17.90;99.90
24904;DHT22;12960;50.322;11.124;2022-08-26T02:31:57;17.90;99.90
24904;DHT22;12960;50.322;11.124;2022-08-26T02:32:59;17.90;99.90
24904;DHT22;12960;50.322;11.124;2022-08-26T02:34:12;17.90;99.90
24904;DHT22;12960;50.322;11.124;2022-08-26T02:35:15;17.90;99.90
24904;DHT22;12960;50.322;11.124;2022-08-26T02:36:24;17.80;99.90
24904;DHT22;12960;50.322;11.124;2022-08-26T02:37:29;17.80;99.90
24904;DHT22;12960;50.322;11.124;2022-08-26T02:38:31;17.80;99.90
24904;DHT22;12960;50.322;11.124;2022-08-26T02:39:33;17.80;99.90
24904;DHT22;12960;50.322;11.124;2022-08-26T02:40:37;17.90;99.90
24904;DHT22;12960;50.322;11.124;2022-08-26T02:41:40;17.90;99.90
24904;DHT22;12960;50.322;11.124;2022-08-26T02:42:41;17.90;99.90
24904;DHT22;12960;50.322;11.124;2022-08-26T02:43:43;17.90;99.90
24904;DHT22;12960;50.322;11.124;2022-08-26T02:44:47;17.90;99.90
24904;DHT22;12960;50.322;11.124;2022-08-26T02:45:51;17.90;99.90
24904;DHT22;12960;50.322;11.124;2022-08-26T02:46:52;17.90;99.90
24904;DHT22;12960;50.322;11.124;2022-08-26T02:47:55;18.00;99.90
24904;DHT22;12960;50.322;11.124;2022-08-26T02:49:00;18.00;99.90
24904;DHT22;12960;50.322;11.124;2022-08-26T02:50:02;18.10;99.90
24904;DHT22;12960;50.322;11.124;2022-08-26T02:51:03;18.10;99.90
24904;DHT22;12960;50.322;11.124;2022-08-26T02:52:04;18.20;99.90
24904;DHT22;12960;50.322;11.124;2022-08-26T02:53:06;18.10;99.90
24904;DHT22;12960;50.322;11.124;2022-08-26T02:54:07;18.10;99.90
24904;DHT22;12960;50.322;11.124;2022-08-26T02:55:08;18.10;99.90
24904;DHT22;12960;50.322;11.124;2022-08-26T02:56:09;18.10;99.90
24904;DHT22;12960;50.322;11.124;2022-08-26T02:57:10;18.10;99.90
24904;DHT22;12960;50.322;11.124;2022-08-26T02:58:11;18.10;99.90
24904;DHT22;12960;50.322;11.124;2022-08-26T02:59:12;18.00;99.90
24904;DHT22;12960;50.322;11.124;2022-08-26T03:00:14;18.00;99.90
24904;DHT22;12960;50.322;11.124;2022-08-26T03:01:23;18.00;99.90
24904;DHT22;12960;50.322;11.124;2022-08-26T03:02:24;18.00;99.90
24904;DHT22;12960;50.322;11.124;2022-08-26T03:03:25;18.00;99.90
24904;DHT22;12960;50.322;11.124;2022-08-26T03:04:26;18.00;99.90
24904;DHT22;12960;50.322;11.124;2022-08-26T03:05:27;17.90;99.90
24904;DHT22;12960;50.322;11.124;2022-08-26T03:06:29;17.90;99.90
24904;DHT22;12960;50.322;11.124;2022-08-26T03:07:30;17.90;99.90
24904;DHT22;12960;50.322;11.124;2022-08-26T03:08:34;17.90;99.90
24904;DHT22;12960;50.322;11.124;2022-08-26T03:09:35;17.90;99.90
24904;DHT22;12960;50.322;11.124;2022-08-26T03:10:37;17.90;99.90
24904;DHT22;12960;50.322;11.124;2022-08-26T03:11:38;17.90;99.90
24904;DHT22;12960;50.322;11.124;2022-08-26T03:12:43;17.90;99.90
24904;DHT22;12960;50.322;11.124;2022-08-26T03:13:47;17.90;99.90
24904;DHT22;12960;50.322;11.124;2022-08-26T03:14:51;17.90;99.90
24904;DHT22;12960;50.322;11.124;2022-08-26T03:15:52;17.90;99.90
24904;DHT22;12960;50.322;11.124;2022-08-26T03:16:55;17.90;99.90
24904;DHT22;12960;50.322;11.124;2022-08-26T03:17:56;17.90;99.90
24904;DHT22;12960;50.322;11.124;2022-08-26T03:18:57;17.90;99.90
24904;DHT22;12960;50.322;11.124;2022-08-26T03:19:58;18.00;99.90
24904;DHT22;12960;50.322;11.124;2022-08-26T03:21:07;18.00;99.90
24904;DHT22;12960;50.322;11.124;2022-08-26T03:22:08;18.00;99.90
24904;DHT22;12960;50.322;11.124;2022-08-26T03:23:09;18.00;99.90
24904;DHT22;12960;50.322;11.124;2022-08-26T03:24:10;17.90;99.90
24904;DHT22;12960;50.322;11.124;2022-08-26T03:25:14;17.90;99.90
24904;DHT22;12960;50.322;11.124;2022-08-26T03:26:19;17.90;99.90
24904;DHT22;12960;50.322;11.124;2022-08-26T03:27:20;17.90;99.90
24904;DHT22;12960;50.322;11.124;2022-08-26T03:28:21;17.90;99.90
24904;DHT22;12960;50.322;11.124;2022-08-26T03:29:23;18.00;99.90
24904;DHT22;12960;50.322;11.124;2022-08-26T03:30:43;18.00;99.90
24904;DHT22;12960;50.322;11.124;2022-08-26T03:31:44;18.00;99.90
24904;DHT22;12960;50.322;11.124;2022-08-26T03:32:48;18.00;99.90
24904;DHT22;12960;50.322;11.124;2022-08-26T03:33:49;18.00;99.90
24904;DHT22;12960;50.322;11.124;2022-08-26T03:34:50;18.00;99.90
24904;DHT22;12960;50.322;11.124;2022-08-26T03:35:53;18.00;99.90
24904;DHT22;12960;50.322;11.124;2022-08-26T03:36:54;17.90;99.90
24904;DHT22;12960;50.322;11.124;2022-08-26T03:37:55;17.90;99.90
24904;DHT22;12960;50.322;11.124;2022-08-26T03:38:56;17.90;99.90
24904;DHT22;12960;50.322;11.124;2022-08-26T03:39:57;17.90;99.90
24904;DHT22;12960;50.322;11.124;2022-08-26T03:40:58;17.80;99.90
24904;DHT22;12960;50.322;11.124;2022-08-26T03:42:00;17.90;99.90
24904;DHT22;12960;50.322;11.124;2022-08-26T03:43:03;17.90;99.90
24904;DHT22;12960;50.322;11.124;2022-08-26T03:44:05;17.90;99.90
24904;DHT22;12960;50.322;11.124;2022-08-26T03:45:10;18.00;99.90
24904;DHT22;12960;50.322;11.124;2022-08-26T03:46:11;18.00;99.90
24904;DHT22;12960;50.322;11.124;2022-08-26T03:47:12;18.00;99.90
24904;DHT22;12960;50.322;11.124;2022-08-26T03:48:13;18.00;99.90
24904;DHT22;12960;50.322;11.124;2022-08-26T03:49:17;18.00;99.90
24904;DHT22;12960;50.322;11.124;2022-08-26T03:50:22;17.90;99.90
24904;DHT22;12960;50.322;11.124;2022-08-26T03:51:23;18.00;99.90
24904;DHT22;12960;50.322;11.124;2022-08-26T03:52:27;17.90;99.90
24904;DHT22;12960;50.322;11.124;2022-08-26T03:53:30;18.00;99.90
24904;DHT22;12960;50.322;11.124;2022-08-26T03:54:31;17.90;99.90
24904;DHT22;12960;50.322;11.124;2022-08-26T03:55:32;18.00;99.90
24904;DHT22;12960;50.322;11.124;2022-08-26T03:56:33;18.00;99.90
24904;DHT22;12960;50.322;11.124;2022-08-26T03:57:34;17.90;99.90
24904;DHT22;12960;50.322;11.124;2022-08-26T03:58:36;17.90;99.90
24904;DHT22;12960;50.322;11.124;2022-08-26T03:59:37;17.90;99.90
24904;DHT22;12960;50.322;11.124;2022-08-26T04:00:38;17.90;99.90
24904;DHT22;12960;50.322;11.124;2022-08-26T04:01:39;17.90;99.90
24904;DHT22;12960;50.322;11.124;2022-08-26T04:02:42;17.80;99.90
24904;DHT22;12960;50.322;11.124;2022-08-26T04:03:46;17.80;99.90
24904;DHT22;12960;50.322;11.124;2022-08-26T04:05:05;17.80;99.90
24904;DHT22;12960;50.322;11.124;2022-08-26T04:06:07;17.80;99.90
24904;DHT22;12960;50.322;11.124;2022-08-26T04:07:08;17.80;99.90
24904;DHT22;12960;50.322;11.124;2022-08-26T04:08:09;17.80;99.90
24904;DHT22;12960;50.322;11.124;2022-08-26T04:09:17;17.80;99.90
24904;DHT22;12960;50.322;11.124;2022-08-26T04:10:19;17.80;99.90
24904;DHT22;12960;50.322;11.124;2022-08-26T04:11:25;17.80;99.90
24904;DHT22;12960;50.322;11.124;2022-08-26T04:12:30;17.80;99.90
24904;DHT22;12960;50.322;11.124;2022-08-26T04:13:31;17.80;99.90
24904;DHT22;12960;50.322;11.124;2022-08-26T04:14:32;17.70;99.90
24904;DHT22;12960;50.322;11.124;2022-08-26T04:15:35;17.70;99.90
24904;DHT22;12960;50.322;11.124;2022-08-26T04:16:36;17.70;99.90
24904;DHT22;12960;50.322;11.124;2022-08-26T04:17:37;17.60;99.90
24904;DHT22;12960;50.322;11.124;2022-08-26T04:18:38;17.60;99.90
24904;DHT22;12960;50.322;11.124;2022-08-26T04:19:41;17.50;99.90
24904;DHT22;12960;50.322;11.124;2022-08-26T04:20:42;17.50;99.90
24904;DHT22;12960;50.322;11.124;2022-08-26T04:21:45;17.50;99.90
24904;DHT22;12960;50.322;11.124;2022-08-26T04:22:46;17.50;99.90
24904;DHT22;12960;50.322;11.124;2022-08-26T04:23:47;17.50;99.90
24904;DHT22;12960;50.322;11.124;2022-08-26T04:24:49;17.50;99.90
24904;DHT22;12960;50.322;11.124;2022-08-26T04:25:50;17.50;99.90
24904;DHT22;12960;50.322;11.124;2022-08-26T04:26:52;17.50;99.90
24904;DHT22;12960;50.322;11.124;2022-08-26T04:27:53;17.50;99.90
24904;DHT22;12960;50.322;11.124;2022-08-26T04:28:58;17.50;99.90
24904;DHT22;12960;50.322;11.124;2022-08-26T04:29:59;17.50;99.90
24904;DHT22;12960;50.322;11.124;2022-08-26T04:31:00;17.50;99.90
24904;DHT22;12960;50.322;11.124;2022-08-26T04:32:02;17.60;99.90
24904;DHT22;12960;50.322;11.124;2022-08-26T04:33:04;17.60;99.90
24904;DHT22;12960;50.322;11.124;2022-08-26T04:34:06;17.60;99.90
24904;DHT22;12960;50.322;11.124;2022-08-26T04:35:09;17.60;99.90
24904;DHT22;12960;50.322;11.124;2022-08-26T04:36:11;17.60;99.90
24904;DHT22;12960;50.322;11.124;2022-08-26T04:37:12;17.60;99.90
24904;DHT22;12960;50.322;11.124;2022-08-26T04:38:13;17.70;99.90
24904;DHT22;12960;50.322;11.124;2022-08-26T04:39:16;17.70;99.90
24904;DHT22;12960;50.322;11.124;2022-08-26T04:40:24;17.70;99.90
24904;DHT22;12960;50.322;11.124;2022-08-26T04:41:28;17.60;99.90
24904;DHT22;12960;50.322;11.124;2022-08-26T04:42:31;17.60;99.90
24904;DHT22;12960;50.322;11.124;2022-08-26T04:43:33;17.60;99.90
24904;DHT22;12960;50.322;11.124;2022-08-26T04:44:35;17.60;99.90
24904;DHT22;12960;50.322;11.124;2022-08-26T04:45:37;17.60;99.90
24904;DHT22;12960;50.322;11.124;2022-08-26T04:46:40;17.60;99.90
24904;DHT22;12960;50.322;11.124;2022-08-26T04:47:41;17.60;99.90
24904;DHT22;12960;50.322;11.124;2022-08-26T04:48:42;17.60;99.90
24904;DHT22;12960;50.322;11.124;2022-08-26T04:49:43;17.60;99.90
24904;DHT22;12960;50.322;11.124;2022-08-26T04:50:46;17.60;99.90
24904;DHT22;12960;50.322;11.124;2022-08-26T04:51:47;17.60;99.90
24904;DHT22;12960;50.322;11.124;2022-08-26T04:52:49;17.60;99.90
24904;DHT22;12960;50.322;11.124;2022-08-26T04:53:50;17.60;99.90
24904;DHT22;12960;50.322;11.124;2022-08-26T04:54:51;17.60;99.90
24904;DHT22;12960;50.322;11.124;2022-08-26T04:55:55;17.60;99.90
24904;DHT22;12960;50.322;11.124;2022-08-26T04:56:56;17.60;99.90
24904;DHT22;12960;50.322;11.124;2022-08-26T04:57:57;17.60;99.90
24904;DHT22;12960;50.322;11.124;2022-08-26T04:58:59;17.60;99.90
24904;DHT22;12960;50.322;11.124;2022-08-26T05:00:01;17.60;99.90
24904;DHT22;12960;50.322;11.124;2022-08-26T05:01:02;17.70;99.90
24904;DHT22;12960;50.322;11.124;2022-08-26T05:02:07;17.70;99.90
24904;DHT22;12960;50.322;11.124;2022-08-26T05:03:08;17.70;99.90
24904;DHT22;12960;50.322;11.124;2022-08-26T05:04:09;17.70;99.90
24904;DHT22;12960;50.322;11.124;2022-08-26T05:05:12;17.70;99.90
24904;DHT22;12960;50.322;11.124;2022-08-26T05:06:14;17.70;99.90
24904;DHT22;12960;50.322;11.124;2022-08-26T05:07:15;17.70;99.90
24904;DHT22;12960;50.322;11.124;2022-08-26T05:08:18;17.70;99.90
24904;DHT22;12960;50.322;11.124;2022-08-26T05:09:19;17.70;99.90
24904;DHT22;12960;50.322;11.124;2022-08-26T05:10:23;17.70;99.90
24904;DHT22;12960;50.322;11.124;2022-08-26T05:11:24;17.80;99.90
24904;DHT22;12960;50.322;11.124;2022-08-26T05:12:26;17.80;99.90
24904;DHT22;12960;50.322;11.124;2022-08-26T05:13:27;17.90;99.90
24904;DHT22;12960;50.322;11.124;2022-08-26T05:14:28;17.80;99.90
24904;DHT22;12960;50.322;11.124;2022-08-26T05:15:29;17.90;99.90
24904;DHT22;12960;50.322;11.124;2022-08-26T05:16:31;17.90;99.90
24904;DHT22;12960;50.322;11.124;2022-08-26T05:17:32;17.90;99.90
24904;DHT22;12960;50.322;11.124;2022-08-26T05:18:33;17.90;99.90
24904;DHT22;12960;50.322;11.124;2022-08-26T05:19:34;17.90;99.90
24904;DHT22;12960;50.322;11.124;2022-08-26T05:20:41;17.90;99.90
24904;DHT22;12960;50.322;11.124;2022-08-26T05:21:45;17.90;99.90
24904;DHT22;12960;50.322;11.124;2022-08-26T05:22:48;17.90;99.90
24904;DHT22;12960;50.322;11.124;2022-08-26T05:23:50;18.00;99.90
24904;DHT22;12960;50.322;11.124;2022-08-26T05:24:51;18.00;99.90
24904;DHT22;12960;50.322;11.124;2022-08-26T05:25:53;18.00;99.90
24904;DHT22;12960;50.322;11.124;2022-08-26T05:26:54;18.00;99.90
24904;DHT22;12960;50.322;11.124;2022-08-26T05:27:56;18.00;99.90
24904;DHT22;12960;50.322;11.124;2022-08-26T05:28:57;18.00;99.90
24904;DHT22;12960;50.322;11.124;2022-08-26T05:30:01;18.00;99.90
24904;DHT22;12960;50.322;11.124;2022-08-26T05:31:17;18.10;99.90
24904;DHT22;12960;50.322;11.124;2022-08-26T05:32:19;18.10;99.90
24904;DHT22;12960;50.322;11.124;2022-08-26T05:33:20;18.10;99.90
24904;DHT22;12960;50.322;11.124;2022-08-26T05:34:21;18.20;99.90
24904;DHT22;12960;50.322;11.124;2022-08-26T05:35:26;18.20;99.90
24904;DHT22;12960;50.322;11.124;2022-08-26T05:36:30;18.30;99.90
24904;DHT22;12960;50.322;11.124;2022-08-26T05:37:31;18.30;99.90
24904;DHT22;12960;50.322;11.124;2022-08-26T05:38:32;18.40;99.90
24904;DHT22;12960;50.322;11.124;2022-08-26T05:39:34;18.50;99.90
24904;DHT22;12960;50.322;11.124;2022-08-26T05:40:38;18.50;99.90
24904;DHT22;12960;50.322;11.124;2022-08-26T05:41:41;18.60;99.90
24904;DHT22;12960;50.322;11.124;2022-08-26T05:42:46;18.60;99.90
24904;DHT22;12960;50.322;11.124;2022-08-26T05:43:47;18.70;99.90
24904;DHT22;12960;50.322;11.124;2022-08-26T05:44:52;18.70;99.90
24904;DHT22;12960;50.322;11.124;2022-08-26T05:45:53;18.80;99.90
24904;DHT22;12960;50.322;11.124;2022-08-26T05:46:54;18.80;99.90
24904;DHT22;12960;50.322;11.124;2022-08-26T05:47:55;18.90;99.90
24904;DHT22;12960;50.322;11.124;2022-08-26T05:48:56;18.90;99.90
24904;DHT22;12960;50.322;11.124;2022-08-26T05:49:57;18.90;99.90
24904;DHT22;12960;50.322;11.124;2022-08-26T05:51:04;19.00;99.90
24904;DHT22;12960;50.322;11.124;2022-08-26T05:52:13;19.00;99.90
24904;DHT22;12960;50.322;11.124;2022-08-26T05:53:17;19.10;99.90
24904;DHT22;12960;50.322;11.124;2022-08-26T05:54:18;19.10;99.90
24904;DHT22;12960;50.322;11.124;2022-08-26T05:55:19;19.20;99.90
24904;DHT22;12960;50.322;11.124;2022-08-26T05:56:22;19.20;99.90
24904;DHT22;12960;50.322;11.124;2022-08-26T05:57:33;19.30;99.90
24904;DHT22;12960;50.322;11.124;2022-08-26T05:58:39;19.40;99.90
24904;DHT22;12960;50.322;11.124;2022-08-26T05:59:40;19.50;99.90
24904;DHT22;12960;50.322;11.124;2022-08-26T06:00:41;19.50;99.90
24904;DHT22;12960;50.322;11.124;2022-08-26T06:01:42;19.60;99.90
24904;DHT22;12960;50.322;11.124;2022-08-26T06:02:43;19.70;99.90
24904;DHT22;12960;50.322;11.124;2022-08-26T06:03:47;19.80;99.90
24904;DHT22;12960;50.322;11.124;2022-08-26T06:04:48;19.90;99.90
24904;DHT22;12960;50.322;11.124;2022-08-26T06:05:49;20.00;99.90
24904;DHT22;12960;50.322;11.124;2022-08-26T06:06:50;20.00;99.90
24904;DHT22;12960;50.322;11.124;2022-08-26T06:07:51;20.10;99.90
24904;DHT22;12960;50.322;11.124;2022-08-26T06:09:11;20.20;99.90
24904;DHT22;12960;50.322;11.124;2022-08-26T06:10:12;20.30;99.90
24904;DHT22;12960;50.322;11.124;2022-08-26T06:11:15;20.40;90.40
24904;DHT22;12960;50.322;11.124;2022-08-26T06:12:19;20.50;62.90
24904;DHT22;12960;50.322;11.124;2022-08-26T06:13:23;20.60;35.70
24904;DHT22;12960;50.322;11.124;2022-08-26T06:14:26;20.70;23.90
24904;DHT22;12960;50.322;11.124;2022-08-26T06:15:27;20.70;1.00
24904;DHT22;12960;50.322;11.124;2022-08-26T06:16:35;20.70;1.00
24904;DHT22;12960;50.322;11.124;2022-08-26T06:17:38;20.80;1.00
24904;DHT22;12960;50.322;11.124;2022-08-26T06:18:41;21.00;1.00
24904;DHT22;12960;50.322;11.124;2022-08-26T06:19:43;21.00;1.00
24904;DHT22;12960;50.322;11.124;2022-08-26T06:20:45;21.10;1.00
24904;DHT22;12960;50.322;11.124;2022-08-26T06:21:48;21.10;1.00
24904;DHT22;12960;50.322;11.124;2022-08-26T06:22:49;21.20;1.00
24904;DHT22;12960;50.322;11.124;2022-08-26T06:24:11;21.30;1.00
24904;DHT22;12960;50.322;11.124;2022-08-26T06:25:31;21.30;1.00
24904;DHT22;12960;50.322;11.124;2022-08-26T06:26:41;21.40;1.00
24904;DHT22;12960;50.322;11.124;2022-08-26T06:27:42;21.40;1.00
24904;DHT22;12960;50.322;11.124;2022-08-26T06:28:44;21.40;1.00
24904;DHT22;12960;50.322;11.124;2022-08-26T06:29:45;21.30;1.00
24904;DHT22;12960;50.322;11.124;2022-08-26T06:30:46;21.30;1.00
24904;DHT22;12960;50.322;11.124;2022-08-26T06:31:48;21.30;1.00
24904;DHT22;12960;50.322;11.124;2022-08-26T06:32:52;21.40;1.00
24904;DHT22;12960;50.322;11.124;2022-08-26T06:33:54;21.40;1.00
24904;DHT22;12960;50.322;11.124;2022-08-26T06:35:01;21.40;1.00
24904;DHT22;12960;50.322;11.124;2022-08-26T06:36:02;21.50;1.00
24904;DHT22;12960;50.322;11.124;2022-08-26T06:37:03;21.40;1.00
24904;DHT22;12960;50.322;11.124;2022-08-26T06:38:06;21.40;1.00